EXS22AP LEPA-EGGD
Flight info
| Callsign | EXS22AP |
|---|---|
| Flight time | 1h 54m |
| Altitude | 36000 |
| Route | DRAGO5A/24R DRAGO DCT PAPOS DCT UMURE N863 GIROM DCT GONUP DCT MANAK DCT MUREL DCT NOZHU DCT SHIRI DCT TOJAQ |
| Aircraft | B738/M-SDE2E3FGHIRWXY/LB1 |
Departure
| Time | 2026-05-03 20:27 |
|---|---|
| Airport | Palma de Mallorca Airport (LEPA) |
Arrival
| Time | 2026-05-03 22:22 |
|---|---|
| Airport | Bristol Airport (EGGD) |
| Time | Latitude | Longitude | Altitude | Speed | Heading |
|---|---|---|---|---|---|
| 2026-05-03 20:15 | 39.55132 | 2.72970 | 37 ft | 0 kts | 162° |
| 2026-05-03 20:18 | 39.55154 | 2.72961 | 35 ft | 4 kts | 162° |
| 2026-05-03 20:18 | 39.55175 | 2.72951 | 34 ft | 4 kts | 149° |
| 2026-05-03 20:19 | 39.55191 | 2.72930 | 35 ft | 4 kts | 90° |
| 2026-05-03 20:19 | 39.55183 | 2.72899 | 34 ft | 4 kts | 59° |
| 2026-05-03 20:19 | 39.55171 | 2.72872 | 36 ft | 2 kts | 59° |
| 2026-05-03 20:19 | 39.55170 | 2.72870 | 36 ft | 0 kts | 59° |
| 2026-05-03 20:22 | 39.55190 | 2.72912 | 34 ft | 10 kts | 58° |
| 2026-05-03 20:22 | 39.55226 | 2.72989 | 37 ft | 10 kts | 58° |
| 2026-05-03 20:22 | 39.55268 | 2.73077 | 37 ft | 13 kts | 58° |
| 2026-05-03 20:23 | 39.55326 | 2.73198 | 37 ft | 17 kts | 58° |
| 2026-05-03 20:23 | 39.55385 | 2.73322 | 37 ft | 16 kts | 58° |
| 2026-05-03 20:23 | 39.55472 | 2.73500 | 37 ft | 23 kts | 59° |
| 2026-05-03 20:23 | 39.55566 | 2.73541 | 35 ft | 16 kts | 331° |
| 2026-05-03 20:24 | 39.55666 | 2.73527 | 37 ft | 17 kts | 46° |
| 2026-05-03 20:24 | 39.55729 | 2.73656 | 37 ft | 18 kts | 58° |
| 2026-05-03 20:24 | 39.55793 | 2.73788 | 37 ft | 17 kts | 58° |
| 2026-05-03 20:24 | 39.55844 | 2.73888 | 37 ft | 10 kts | 41° |
| 2026-05-03 20:25 | 39.55908 | 2.73884 | 36 ft | 10 kts | 332° |
| 2026-05-03 20:25 | 39.55918 | 2.73876 | 37 ft | 0 kts | 331° |
| 2026-05-03 20:25 | 39.55934 | 2.73865 | 37 ft | 6 kts | 331° |
| 2026-05-03 20:26 | 39.55970 | 2.73837 | 37 ft | 8 kts | 325° |
| 2026-05-03 20:26 | 39.55989 | 2.73763 | 37 ft | 10 kts | 251° |
| 2026-05-03 20:26 | 39.55969 | 2.73719 | 37 ft | 17 kts | 240° |
| 2026-05-03 20:26 | 39.55748 | 2.73251 | 37 ft | 103 kts | 238° |
| 2026-05-03 20:27 | 39.55239 | 2.72171 | 44 ft | 175 kts | 239° |
| 2026-05-03 20:27 | 39.54558 | 2.70679 | 607 ft | 201 kts | 240° |
| 2026-05-03 20:27 | 39.53871 | 2.69101 | 1693 ft | 200 kts | 238° |
| 2026-05-03 20:27 | 39.53202 | 2.67543 | 2755 ft | 196 kts | 236° |
| 2026-05-03 20:28 | 39.52414 | 2.66062 | 3344 ft | 206 kts | 233° |
| 2026-05-03 20:28 | 39.51567 | 2.64544 | 3909 ft | 209 kts | 233° |
| 2026-05-03 20:28 | 39.50716 | 2.62989 | 4461 ft | 215 kts | 234° |
| 2026-05-03 20:28 | 39.49850 | 2.61366 | 5036 ft | 222 kts | 236° |
| 2026-05-03 20:29 | 39.48986 | 2.59712 | 5699 ft | 221 kts | 236° |
| 2026-05-03 20:29 | 39.48136 | 2.58067 | 6005 ft | 218 kts | 236° |
| 2026-05-03 20:29 | 39.47366 | 2.56356 | 6387 ft | 231 kts | 252° |
| 2026-05-03 20:29 | 39.47424 | 2.54195 | 6632 ft | 258 kts | 290° |
| 2026-05-03 20:30 | 39.48484 | 2.52251 | 7237 ft | 271 kts | 307° |
| 2026-05-03 20:30 | 39.49759 | 2.50433 | 7987 ft | 273 kts | 308° |
| 2026-05-03 20:30 | 39.51054 | 2.48627 | 8798 ft | 274 kts | 308° |
| 2026-05-03 20:30 | 39.52336 | 2.46839 | 9552 ft | 276 kts | 308° |
| 2026-05-03 20:31 | 39.53643 | 2.45002 | 10278 ft | 280 kts | 307° |
| 2026-05-03 20:31 | 39.55007 | 2.43065 | 10493 ft | 303 kts | 307° |
| 2026-05-03 20:31 | 39.56469 | 2.40974 | 10732 ft | 323 kts | 307° |
| 2026-05-03 20:31 | 39.57999 | 2.38785 | 11247 ft | 331 kts | 307° |
| 2026-05-03 20:32 | 39.59553 | 2.36560 | 11915 ft | 334 kts | 307° |
| 2026-05-03 20:32 | 39.61118 | 2.34318 | 12628 ft | 337 kts | 307° |
| 2026-05-03 20:32 | 39.62699 | 2.32047 | 13316 ft | 340 kts | 307° |
| 2026-05-03 20:32 | 39.64291 | 2.29754 | 13969 ft | 344 kts | 307° |
| 2026-05-03 20:33 | 39.65898 | 2.27436 | 14556 ft | 348 kts | 307° |
| 2026-05-03 20:33 | 39.67526 | 2.25085 | 15137 ft | 352 kts | 307° |
| 2026-05-03 20:33 | 39.69146 | 2.22742 | 15749 ft | 354 kts | 307° |
| 2026-05-03 20:33 | 39.70798 | 2.20353 | 16354 ft | 357 kts | 307° |
| 2026-05-03 20:34 | 39.72467 | 2.17935 | 16942 ft | 361 kts | 307° |
| 2026-05-03 20:34 | 39.74149 | 2.15497 | 17513 ft | 364 kts | 307° |
| 2026-05-03 20:34 | 39.75847 | 2.13033 | 18103 ft | 368 kts | 307° |
| 2026-05-03 20:34 | 39.77561 | 2.10544 | 18624 ft | 371 kts | 307° |
| 2026-05-03 20:35 | 39.79287 | 2.08035 | 19139 ft | 374 kts | 307° |
| 2026-05-03 20:35 | 39.81033 | 2.05495 | 19572 ft | 379 kts | 307° |
| 2026-05-03 20:35 | 39.82775 | 2.02960 | 20044 ft | 382 kts | 307° |
| 2026-05-03 20:35 | 39.84552 | 2.00372 | 20553 ft | 385 kts | 307° |
| 2026-05-03 20:36 | 39.86342 | 1.97763 | 21037 ft | 388 kts | 307° |
| 2026-05-03 20:36 | 39.88143 | 1.95135 | 21501 ft | 391 kts | 307° |
| 2026-05-03 20:36 | 39.89960 | 1.92480 | 21964 ft | 394 kts | 307° |
| 2026-05-03 20:36 | 39.91791 | 1.89804 | 22439 ft | 397 kts | 307° |
| 2026-05-03 20:37 | 39.93631 | 1.87112 | 22957 ft | 398 kts | 307° |
| 2026-05-03 20:37 | 39.95476 | 1.84412 | 23429 ft | 401 kts | 307° |
| 2026-05-03 20:37 | 39.97309 | 1.81725 | 23810 ft | 404 kts | 307° |
| 2026-05-03 20:37 | 39.99215 | 1.79023 | 24181 ft | 408 kts | 312° |
| 2026-05-03 20:38 | 40.01453 | 1.76691 | 24579 ft | 415 kts | 322° |
| 2026-05-03 20:38 | 40.03991 | 1.74829 | 24957 ft | 423 kts | 332° |
| 2026-05-03 20:38 | 40.06733 | 1.73368 | 25307 ft | 427 kts | 334° |
| 2026-05-03 20:38 | 40.09517 | 1.71975 | 25666 ft | 430 kts | 335° |
| 2026-05-03 20:39 | 40.12319 | 1.70591 | 26032 ft | 432 kts | 335° |
| 2026-05-03 20:39 | 40.15133 | 1.69191 | 26391 ft | 433 kts | 334° |
| 2026-05-03 20:39 | 40.17951 | 1.67772 | 26734 ft | 435 kts | 334° |
| 2026-05-03 20:39 | 40.20741 | 1.66351 | 27078 ft | 437 kts | 334° |
| 2026-05-03 20:40 | 40.23577 | 1.64895 | 27410 ft | 439 kts | 334° |
| 2026-05-03 20:40 | 40.26423 | 1.63428 | 27730 ft | 441 kts | 334° |
| 2026-05-03 20:40 | 40.29292 | 1.61944 | 27989 ft | 445 kts | 334° |
| 2026-05-03 20:40 | 40.32178 | 1.60451 | 28301 ft | 447 kts | 334° |
| 2026-05-03 20:41 | 40.35070 | 1.58954 | 28636 ft | 448 kts | 334° |
| 2026-05-03 20:41 | 40.37974 | 1.57450 | 28951 ft | 449 kts | 334° |
| 2026-05-03 20:41 | 40.40891 | 1.55938 | 29241 ft | 451 kts | 334° |
| 2026-05-03 20:41 | 40.43778 | 1.54440 | 29517 ft | 453 kts | 334° |
| 2026-05-03 20:42 | 40.46710 | 1.52917 | 29811 ft | 455 kts | 334° |
| 2026-05-03 20:42 | 40.49670 | 1.51378 | 30090 ft | 457 kts | 334° |
| 2026-05-03 20:42 | 40.52628 | 1.49839 | 30318 ft | 459 kts | 334° |
| 2026-05-03 20:42 | 40.55599 | 1.48292 | 30583 ft | 459 kts | 334° |
| 2026-05-03 20:43 | 40.58552 | 1.46753 | 30909 ft | 458 kts | 334° |
| 2026-05-03 20:43 | 40.61507 | 1.45213 | 31258 ft | 456 kts | 334° |
| 2026-05-03 20:43 | 40.64456 | 1.43674 | 31573 ft | 455 kts | 334° |
| 2026-05-03 20:43 | 40.67358 | 1.42160 | 31847 ft | 455 kts | 334° |
| 2026-05-03 20:44 | 40.70300 | 1.40624 | 32132 ft | 454 kts | 334° |
| 2026-05-03 20:44 | 40.73234 | 1.39092 | 32438 ft | 453 kts | 334° |
| 2026-05-03 20:44 | 40.76169 | 1.37558 | 32752 ft | 452 kts | 333° |
| 2026-05-03 20:44 | 40.79092 | 1.36027 | 33030 ft | 452 kts | 333° |
| 2026-05-03 20:45 | 40.82014 | 1.34495 | 33298 ft | 451 kts | 333° |
| 2026-05-03 20:45 | 40.84932 | 1.32965 | 33580 ft | 451 kts | 333° |
| 2026-05-03 20:45 | 40.87803 | 1.31456 | 33857 ft | 450 kts | 333° |
| 2026-05-03 20:45 | 40.90709 | 1.29929 | 34125 ft | 449 kts | 333° |
| 2026-05-03 20:46 | 40.93616 | 1.28399 | 34257 ft | 451 kts | 333° |
| 2026-05-03 20:46 | 40.96543 | 1.26855 | 34397 ft | 453 kts | 333° |
| 2026-05-03 20:46 | 40.99466 | 1.25315 | 34657 ft | 451 kts | 333° |
| 2026-05-03 20:46 | 41.02368 | 1.23785 | 34957 ft | 448 kts | 333° |
| 2026-05-03 20:47 | 41.05262 | 1.22257 | 35205 ft | 447 kts | 333° |
| 2026-05-03 20:47 | 41.08147 | 1.20731 | 35382 ft | 447 kts | 333° |
| 2026-05-03 20:47 | 41.11036 | 1.19202 | 35562 ft | 447 kts | 333° |
| 2026-05-03 20:47 | 41.13905 | 1.17743 | 35763 ft | 449 kts | 337° |
| 2026-05-03 20:48 | 41.16963 | 1.16756 | 35894 ft | 457 kts | 347° |
| 2026-05-03 20:48 | 41.20149 | 1.16365 | 36016 ft | 461 kts | 351° |
| 2026-05-03 20:48 | 41.23366 | 1.16108 | 36009 ft | 464 kts | 352° |
| 2026-05-03 20:49 | 41.29776 | 1.15557 | 36012 ft | 460 kts | 351° |
| 2026-05-03 20:49 | 41.36126 | 1.14893 | 36027 ft | 456 kts | 351° |
| 2026-05-03 20:50 | 41.42397 | 1.14241 | 36031 ft | 454 kts | 351° |
| 2026-05-03 20:50 | 41.48700 | 1.13590 | 36023 ft | 454 kts | 351° |
| 2026-05-03 20:51 | 41.54997 | 1.12938 | 36015 ft | 454 kts | 351° |
| 2026-05-03 20:51 | 41.61304 | 1.12244 | 36022 ft | 456 kts | 350° |
| 2026-05-03 20:52 | 41.67593 | 1.11543 | 36022 ft | 458 kts | 350° |
| 2026-05-03 20:52 | 41.73958 | 1.10853 | 36016 ft | 460 kts | 351° |
| 2026-05-03 20:53 | 41.80351 | 1.10187 | 36016 ft | 462 kts | 351° |
| 2026-05-03 20:53 | 41.86771 | 1.09518 | 36010 ft | 464 kts | 351° |
| 2026-05-03 20:54 | 41.93212 | 1.08841 | 35998 ft | 465 kts | 351° |
| 2026-05-03 20:54 | 42.02852 | 1.07823 | 36007 ft | 466 kts | 351° |
| 2026-05-03 20:55 | 42.09311 | 1.07140 | 36008 ft | 465 kts | 351° |
| 2026-05-03 20:55 | 42.15763 | 1.06454 | 36013 ft | 465 kts | 351° |
| 2026-05-03 20:56 | 42.22199 | 1.05750 | 36036 ft | 464 kts | 351° |
| 2026-05-03 20:56 | 42.28582 | 1.05046 | 36040 ft | 463 kts | 351° |
| 2026-05-03 20:57 | 42.34995 | 1.04339 | 36032 ft | 462 kts | 351° |
| 2026-05-03 20:57 | 42.41385 | 1.03634 | 36048 ft | 460 kts | 351° |
| 2026-05-03 20:58 | 42.47763 | 1.02935 | 36036 ft | 459 kts | 351° |
| 2026-05-03 20:58 | 42.54082 | 1.02253 | 36025 ft | 458 kts | 351° |
| 2026-05-03 20:59 | 42.60425 | 1.01564 | 36035 ft | 457 kts | 351° |
| 2026-05-03 20:59 | 42.66776 | 1.00872 | 36028 ft | 459 kts | 351° |
| 2026-05-03 21:00 | 42.70992 | 1.00411 | 36011 ft | 460 kts | 351° |
| 2026-05-03 21:00 | 42.79476 | 0.99204 | 35989 ft | 459 kts | 342° |
| 2026-05-03 21:01 | 42.85664 | 0.97075 | 35987 ft | 458 kts | 340° |
| 2026-05-03 21:01 | 42.91820 | 0.94830 | 35981 ft | 459 kts | 340° |
| 2026-05-03 21:02 | 42.98008 | 0.92642 | 35988 ft | 460 kts | 341° |
| 2026-05-03 21:02 | 43.04185 | 0.90501 | 35984 ft | 462 kts | 341° |
| 2026-05-03 21:03 | 43.10423 | 0.88346 | 35965 ft | 462 kts | 341° |
| 2026-05-03 21:03 | 43.16659 | 0.86183 | 35965 ft | 462 kts | 341° |
| 2026-05-03 21:04 | 43.22893 | 0.84015 | 35975 ft | 462 kts | 341° |
| 2026-05-03 21:04 | 43.29086 | 0.81856 | 35962 ft | 462 kts | 340° |
| 2026-05-03 21:05 | 43.35308 | 0.79683 | 35958 ft | 461 kts | 340° |
| 2026-05-03 21:05 | 43.41513 | 0.77510 | 35961 ft | 460 kts | 340° |
| 2026-05-03 21:06 | 43.47658 | 0.75161 | 35955 ft | 455 kts | 333° |
| 2026-05-03 21:06 | 43.53421 | 0.71833 | 35960 ft | 451 kts | 330° |
| 2026-05-03 21:07 | 43.59151 | 0.68323 | 35964 ft | 451 kts | 330° |
| 2026-05-03 21:07 | 43.64896 | 0.64853 | 35973 ft | 451 kts | 330° |
| 2026-05-03 21:08 | 43.70662 | 0.61420 | 35963 ft | 452 kts | 330° |
| 2026-05-03 21:08 | 43.76405 | 0.58017 | 35966 ft | 452 kts | 330° |
| 2026-05-03 21:09 | 43.82189 | 0.54585 | 35966 ft | 453 kts | 330° |
| 2026-05-03 21:09 | 43.87987 | 0.51134 | 35971 ft | 454 kts | 330° |
| 2026-05-03 21:10 | 43.93800 | 0.47667 | 35967 ft | 455 kts | 330° |
| 2026-05-03 21:10 | 43.99591 | 0.44206 | 35970 ft | 456 kts | 330° |
| 2026-05-03 21:11 | 44.05431 | 0.40707 | 35973 ft | 457 kts | 330° |
| 2026-05-03 21:11 | 44.11277 | 0.37198 | 35984 ft | 458 kts | 330° |
| 2026-05-03 21:12 | 44.17135 | 0.33674 | 35969 ft | 459 kts | 330° |
| 2026-05-03 21:12 | 44.22999 | 0.30139 | 35965 ft | 459 kts | 330° |
| 2026-05-03 21:13 | 44.28783 | 0.26647 | 35952 ft | 453 kts | 330° |
| 2026-05-03 21:13 | 44.34554 | 0.23155 | 35962 ft | 450 kts | 330° |
| 2026-05-03 21:14 | 44.40287 | 0.19675 | 35966 ft | 449 kts | 330° |
| 2026-05-03 21:14 | 44.46005 | 0.16196 | 35973 ft | 448 kts | 330° |
| 2026-05-03 21:15 | 44.51693 | 0.12727 | 35974 ft | 449 kts | 330° |
| 2026-05-03 21:15 | 44.57434 | 0.09218 | 35977 ft | 451 kts | 330° |
| 2026-05-03 21:16 | 44.63209 | 0.05683 | 35987 ft | 454 kts | 330° |
| 2026-05-03 21:16 | 44.69013 | 0.02122 | 35978 ft | 456 kts | 330° |
| 2026-05-03 21:17 | 44.73858 | -0.00856 | 35990 ft | 458 kts | 330° |
| 2026-05-03 21:17 | 44.80658 | -0.05045 | 35977 ft | 461 kts | 330° |
| 2026-05-03 21:18 | 44.86498 | -0.08650 | 35975 ft | 463 kts | 330° |
| 2026-05-03 21:18 | 44.92406 | -0.12306 | 35973 ft | 464 kts | 330° |
| 2026-05-03 21:19 | 44.98285 | -0.15951 | 35968 ft | 464 kts | 330° |
| 2026-05-03 21:19 | 45.04198 | -0.19627 | 35970 ft | 464 kts | 330° |
| 2026-05-03 21:20 | 45.10111 | -0.23310 | 35971 ft | 464 kts | 330° |
| 2026-05-03 21:20 | 45.16012 | -0.26996 | 35975 ft | 463 kts | 330° |
| 2026-05-03 21:21 | 45.21867 | -0.30660 | 35978 ft | 463 kts | 330° |
| 2026-05-03 21:21 | 45.27759 | -0.34356 | 35964 ft | 463 kts | 330° |
| 2026-05-03 21:22 | 45.33643 | -0.38056 | 35967 ft | 462 kts | 330° |
| 2026-05-03 21:22 | 45.39516 | -0.41757 | 35979 ft | 461 kts | 330° |
| 2026-05-03 21:23 | 45.45388 | -0.45466 | 35966 ft | 462 kts | 330° |
| 2026-05-03 21:23 | 45.51215 | -0.49156 | 35968 ft | 462 kts | 330° |
| 2026-05-03 21:24 | 45.57087 | -0.52882 | 35967 ft | 462 kts | 330° |
| 2026-05-03 21:24 | 45.62960 | -0.56618 | 35972 ft | 462 kts | 330° |
| 2026-05-03 21:25 | 45.68796 | -0.60338 | 35965 ft | 462 kts | 329° |
| 2026-05-03 21:25 | 45.74669 | -0.64090 | 35963 ft | 462 kts | 329° |
| 2026-05-03 21:26 | 45.80543 | -0.67852 | 35967 ft | 463 kts | 329° |
| 2026-05-03 21:26 | 45.86426 | -0.71628 | 35958 ft | 463 kts | 329° |
| 2026-05-03 21:27 | 45.92309 | -0.75413 | 35962 ft | 463 kts | 329° |
| 2026-05-03 21:27 | 45.98159 | -0.79186 | 36003 ft | 464 kts | 329° |
| 2026-05-03 21:28 | 46.04051 | -0.82996 | 35968 ft | 465 kts | 329° |
| 2026-05-03 21:28 | 46.09949 | -0.86817 | 35955 ft | 465 kts | 329° |
| 2026-05-03 21:29 | 46.15851 | -0.90651 | 35960 ft | 465 kts | 329° |
| 2026-05-03 21:29 | 46.21704 | -0.94481 | 35965 ft | 464 kts | 328° |
| 2026-05-03 21:30 | 46.27404 | -0.98779 | 35966 ft | 461 kts | 324° |
| 2026-05-03 21:30 | 46.33002 | -1.03285 | 35955 ft | 460 kts | 324° |
| 2026-05-03 21:31 | 46.38606 | -1.07784 | 35961 ft | 461 kts | 324° |
| 2026-05-03 21:31 | 46.44190 | -1.12224 | 35969 ft | 461 kts | 324° |
| 2026-05-03 21:32 | 46.49812 | -1.16681 | 35976 ft | 461 kts | 324° |
| 2026-05-03 21:32 | 46.55440 | -1.21147 | 36011 ft | 461 kts | 324° |
| 2026-05-03 21:33 | 46.61077 | -1.25634 | 36001 ft | 463 kts | 325° |
| 2026-05-03 21:33 | 46.66685 | -1.30109 | 36000 ft | 463 kts | 325° |
| 2026-05-03 21:34 | 46.72340 | -1.34631 | 35995 ft | 464 kts | 325° |
| 2026-05-03 21:34 | 46.78005 | -1.39174 | 35997 ft | 465 kts | 325° |
| 2026-05-03 21:35 | 46.83672 | -1.43729 | 35991 ft | 466 kts | 325° |
| 2026-05-03 21:35 | 46.89312 | -1.48273 | 35981 ft | 466 kts | 324° |
| 2026-05-03 21:36 | 46.94991 | -1.52860 | 35973 ft | 467 kts | 324° |
| 2026-05-03 21:36 | 47.00677 | -1.57463 | 35969 ft | 467 kts | 324° |
| 2026-05-03 21:37 | 47.06320 | -1.62043 | 35958 ft | 467 kts | 324° |
| 2026-05-03 21:37 | 47.11995 | -1.66660 | 35975 ft | 466 kts | 325° |
| 2026-05-03 21:38 | 47.17667 | -1.71286 | 35994 ft | 466 kts | 325° |
| 2026-05-03 21:38 | 47.23334 | -1.75920 | 35966 ft | 466 kts | 325° |
| 2026-05-03 21:39 | 47.28994 | -1.80559 | 35963 ft | 465 kts | 325° |
| 2026-05-03 21:39 | 47.34600 | -1.85165 | 35957 ft | 464 kts | 325° |
| 2026-05-03 21:40 | 47.40242 | -1.89812 | 35969 ft | 464 kts | 325° |
| 2026-05-03 21:40 | 47.45869 | -1.94459 | 35962 ft | 463 kts | 325° |
| 2026-05-03 21:41 | 47.51451 | -1.99080 | 35961 ft | 462 kts | 325° |
| 2026-05-03 21:41 | 47.57059 | -2.03734 | 35956 ft | 462 kts | 325° |
| 2026-05-03 21:42 | 47.62659 | -2.08393 | 35963 ft | 462 kts | 325° |
| 2026-05-03 21:42 | 47.68261 | -2.13067 | 35968 ft | 462 kts | 326° |
| 2026-05-03 21:43 | 47.73830 | -2.17722 | 35959 ft | 462 kts | 326° |
| 2026-05-03 21:43 | 47.79435 | -2.22419 | 35970 ft | 463 kts | 326° |
| 2026-05-03 21:44 | 47.85047 | -2.27135 | 35961 ft | 463 kts | 326° |
| 2026-05-03 21:44 | 47.90656 | -2.31859 | 35961 ft | 464 kts | 326° |
| 2026-05-03 21:45 | 47.96276 | -2.36605 | 35958 ft | 464 kts | 326° |
| 2026-05-03 21:45 | 48.01858 | -2.41331 | 35966 ft | 465 kts | 326° |
| 2026-05-03 21:46 | 48.07482 | -2.46104 | 35956 ft | 465 kts | 326° |
| 2026-05-03 21:46 | 48.13111 | -2.50893 | 35962 ft | 465 kts | 326° |
| 2026-05-03 21:47 | 48.18736 | -2.55692 | 35959 ft | 466 kts | 326° |
| 2026-05-03 21:47 | 48.24361 | -2.60503 | 35967 ft | 467 kts | 326° |
| 2026-05-03 21:48 | 48.29957 | -2.65301 | 35963 ft | 467 kts | 326° |
| 2026-05-03 21:48 | 48.35589 | -2.70141 | 35961 ft | 466 kts | 326° |
| 2026-05-03 21:49 | 48.41221 | -2.74995 | 35970 ft | 466 kts | 326° |
| 2026-05-03 21:49 | 48.46807 | -2.79821 | 35957 ft | 466 kts | 326° |
| 2026-05-03 21:50 | 48.52421 | -2.84684 | 35960 ft | 465 kts | 326° |
| 2026-05-03 21:50 | 48.58018 | -2.89545 | 35963 ft | 464 kts | 326° |
| 2026-05-03 21:51 | 48.63602 | -2.94407 | 35977 ft | 463 kts | 326° |
| 2026-05-03 21:51 | 48.69133 | -2.99236 | 35966 ft | 462 kts | 326° |
| 2026-05-03 21:52 | 48.74698 | -3.04107 | 35955 ft | 461 kts | 326° |
| 2026-05-03 21:52 | 48.80247 | -3.08976 | 35970 ft | 460 kts | 327° |
| 2026-05-03 21:53 | 48.85784 | -3.13847 | 35959 ft | 460 kts | 327° |
| 2026-05-03 21:53 | 48.91275 | -3.18691 | 35960 ft | 459 kts | 327° |
| 2026-05-03 21:54 | 48.96790 | -3.23549 | 35960 ft | 458 kts | 329° |
| 2026-05-03 21:54 | 48.99720 | -3.25467 | 35956 ft | 462 kts | 340° |
| 2026-05-03 21:54 | 49.02863 | -3.26598 | 35965 ft | 464 kts | 349° |
| 2026-05-03 21:55 | 49.09331 | -3.27115 | 35957 ft | 466 kts | 357° |
| 2026-05-03 21:55 | 49.15616 | -3.27260 | 35953 ft | 467 kts | 357° |
| 2026-05-03 21:56 | 49.22115 | -3.27453 | 35953 ft | 467 kts | 356° |
| 2026-05-03 21:56 | 49.28610 | -3.27703 | 35964 ft | 467 kts | 356° |
| 2026-05-03 21:57 | 49.35111 | -3.27977 | 35950 ft | 468 kts | 356° |
| 2026-05-03 21:57 | 49.41474 | -3.28247 | 35936 ft | 453 kts | 356° |
| 2026-05-03 21:58 | 49.44585 | -3.28377 | 35925 ft | 440 kts | 356° |
| 2026-05-03 21:58 | 49.47601 | -3.28503 | 35765 ft | 427 kts | 356° |
| 2026-05-03 21:58 | 49.50559 | -3.28628 | 35140 ft | 426 kts | 356° |
| 2026-05-03 21:58 | 49.53549 | -3.28757 | 34185 ft | 434 kts | 356° |
| 2026-05-03 21:59 | 49.55543 | -3.28844 | 33919 ft | 429 kts | 356° |
| 2026-05-03 21:59 | 49.58513 | -3.28970 | 33468 ft | 427 kts | 356° |
| 2026-05-03 21:59 | 49.61475 | -3.29097 | 33080 ft | 424 kts | 356° |
| 2026-05-03 21:59 | 49.64413 | -3.29222 | 32695 ft | 421 kts | 356° |
| 2026-05-03 22:00 | 49.68277 | -3.29387 | 32199 ft | 418 kts | 356° |
| 2026-05-03 22:00 | 49.71169 | -3.29511 | 31842 ft | 415 kts | 356° |
| 2026-05-03 22:00 | 49.74045 | -3.29634 | 31484 ft | 412 kts | 356° |
| 2026-05-03 22:00 | 49.76906 | -3.29756 | 31120 ft | 410 kts | 356° |
| 2026-05-03 22:01 | 49.78793 | -3.29837 | 30884 ft | 409 kts | 357° |
| 2026-05-03 22:01 | 49.81626 | -3.29959 | 30529 ft | 407 kts | 357° |
| 2026-05-03 22:01 | 49.84445 | -3.30080 | 30179 ft | 405 kts | 357° |
| 2026-05-03 22:01 | 49.88165 | -3.30240 | 29647 ft | 402 kts | 357° |
| 2026-05-03 22:02 | 49.90955 | -3.30360 | 29240 ft | 400 kts | 357° |
| 2026-05-03 22:02 | 49.93725 | -3.30479 | 28864 ft | 396 kts | 357° |
| 2026-05-03 22:02 | 49.96465 | -3.30597 | 28515 ft | 393 kts | 357° |
| 2026-05-03 22:02 | 49.98270 | -3.30675 | 28261 ft | 391 kts | 357° |
| 2026-05-03 22:03 | 50.00979 | -3.30792 | 27910 ft | 388 kts | 357° |
| 2026-05-03 22:03 | 50.03665 | -3.30908 | 27532 ft | 385 kts | 357° |
| 2026-05-03 22:03 | 50.06337 | -3.31024 | 27183 ft | 382 kts | 356° |
| 2026-05-03 22:03 | 50.09840 | -3.31176 | 26717 ft | 379 kts | 356° |
| 2026-05-03 22:04 | 50.11618 | -3.31253 | 26475 ft | 377 kts | 356° |
| 2026-05-03 22:04 | 50.14237 | -3.31367 | 26130 ft | 375 kts | 356° |
| 2026-05-03 22:04 | 50.16800 | -3.31478 | 25801 ft | 373 kts | 356° |
| 2026-05-03 22:04 | 50.19392 | -3.31592 | 25306 ft | 375 kts | 356° |
| 2026-05-03 22:05 | 50.22025 | -3.31708 | 24775 ft | 380 kts | 356° |
| 2026-05-03 22:05 | 50.24662 | -3.31824 | 24405 ft | 378 kts | 356° |
| 2026-05-03 22:05 | 50.27285 | -3.31938 | 24104 ft | 375 kts | 356° |
| 2026-05-03 22:05 | 50.29884 | -3.31982 | 23779 ft | 374 kts | 2° |
| 2026-05-03 22:06 | 50.32441 | -3.31231 | 23400 ft | 374 kts | 17° |
| 2026-05-03 22:06 | 50.34853 | -3.29733 | 23007 ft | 372 kts | 25° |
| 2026-05-03 22:06 | 50.37179 | -3.27985 | 22662 ft | 369 kts | 26° |
| 2026-05-03 22:06 | 50.39448 | -3.26248 | 22301 ft | 367 kts | 26° |
| 2026-05-03 22:07 | 50.41739 | -3.24490 | 21935 ft | 365 kts | 26° |
| 2026-05-03 22:07 | 50.44014 | -3.22749 | 21585 ft | 362 kts | 26° |
| 2026-05-03 22:07 | 50.46271 | -3.21030 | 21303 ft | 358 kts | 26° |
| 2026-05-03 22:07 | 50.48505 | -3.19333 | 20964 ft | 356 kts | 26° |
| 2026-05-03 22:08 | 50.50730 | -3.17645 | 20613 ft | 355 kts | 26° |
| 2026-05-03 22:08 | 50.52949 | -3.15964 | 20272 ft | 353 kts | 26° |
| 2026-05-03 22:08 | 50.55123 | -3.14316 | 19947 ft | 351 kts | 26° |
| 2026-05-03 22:08 | 50.57313 | -3.12656 | 19634 ft | 348 kts | 26° |
| 2026-05-03 22:09 | 50.59489 | -3.11006 | 19308 ft | 346 kts | 26° |
| 2026-05-03 22:09 | 50.61653 | -3.09362 | 19001 ft | 344 kts | 26° |
| 2026-05-03 22:09 | 50.63805 | -3.07726 | 18697 ft | 342 kts | 26° |
| 2026-05-03 22:10 | 50.68068 | -3.04481 | 18072 ft | 338 kts | 26° |
| 2026-05-03 22:10 | 50.70176 | -3.02874 | 17734 ft | 336 kts | 26° |
| 2026-05-03 22:10 | 50.72275 | -3.01272 | 17411 ft | 334 kts | 26° |
| 2026-05-03 22:10 | 50.74361 | -2.99678 | 17081 ft | 332 kts | 26° |
| 2026-05-03 22:11 | 50.76435 | -2.98093 | 16763 ft | 330 kts | 26° |
| 2026-05-03 22:11 | 50.78494 | -2.96516 | 16436 ft | 328 kts | 26° |
| 2026-05-03 22:11 | 50.80513 | -2.94969 | 16126 ft | 326 kts | 26° |
| 2026-05-03 22:11 | 50.82550 | -2.93408 | 15806 ft | 324 kts | 26° |
| 2026-05-03 22:12 | 50.84572 | -2.91855 | 15505 ft | 322 kts | 26° |
| 2026-05-03 22:12 | 50.86584 | -2.90309 | 15204 ft | 321 kts | 26° |
| 2026-05-03 22:12 | 50.88586 | -2.88769 | 14910 ft | 319 kts | 27° |
| 2026-05-03 22:12 | 50.90573 | -2.87240 | 14641 ft | 316 kts | 27° |
| 2026-05-03 22:13 | 50.92537 | -2.85726 | 14404 ft | 312 kts | 27° |
| 2026-05-03 22:13 | 50.94449 | -2.84252 | 14175 ft | 308 kts | 27° |
| 2026-05-03 22:13 | 50.96369 | -2.82769 | 13885 ft | 306 kts | 27° |
| 2026-05-03 22:13 | 50.98282 | -2.81290 | 13538 ft | 307 kts | 27° |
| 2026-05-03 22:14 | 51.00208 | -2.79800 | 13093 ft | 312 kts | 27° |
| 2026-05-03 22:14 | 51.02185 | -2.78268 | 12577 ft | 321 kts | 27° |
| 2026-05-03 22:14 | 51.04212 | -2.76696 | 12044 ft | 326 kts | 27° |
| 2026-05-03 22:14 | 51.06264 | -2.75104 | 11509 ft | 330 kts | 26° |
| 2026-05-03 22:15 | 51.08320 | -2.73509 | 10980 ft | 326 kts | 26° |
| 2026-05-03 22:15 | 51.10346 | -2.71935 | 10455 ft | 322 kts | 26° |
| 2026-05-03 22:15 | 51.12349 | -2.70376 | 9944 ft | 318 kts | 26° |
| 2026-05-03 22:15 | 51.14300 | -2.68857 | 9399 ft | 315 kts | 26° |
| 2026-05-03 22:16 | 51.16256 | -2.67332 | 8850 ft | 311 kts | 26° |
| 2026-05-03 22:16 | 51.18191 | -2.65822 | 8297 ft | 308 kts | 26° |
| 2026-05-03 22:16 | 51.20102 | -2.64330 | 7765 ft | 305 kts | 26° |
| 2026-05-03 22:16 | 51.22000 | -2.62846 | 7240 ft | 302 kts | 26° |
| 2026-05-03 22:17 | 51.23870 | -2.61383 | 6860 ft | 295 kts | 26° |
| 2026-05-03 22:17 | 51.25682 | -2.59964 | 6536 ft | 285 kts | 26° |
| 2026-05-03 22:17 | 51.27415 | -2.58605 | 6190 ft | 271 kts | 26° |
| 2026-05-03 22:17 | 51.29079 | -2.57299 | 5720 ft | 263 kts | 26° |
| 2026-05-03 22:18 | 51.30698 | -2.56029 | 5274 ft | 254 kts | 26° |
| 2026-05-03 22:18 | 51.32258 | -2.54803 | 4828 ft | 246 kts | 27° |
| 2026-05-03 22:18 | 51.33754 | -2.53627 | 4360 ft | 240 kts | 27° |
| 2026-05-03 22:18 | 51.35229 | -2.52468 | 3952 ft | 231 kts | 26° |
| 2026-05-03 22:19 | 51.36741 | -2.51920 | 3574 ft | 222 kts | 353° |
| 2026-05-03 22:19 | 51.38058 | -2.52999 | 3237 ft | 213 kts | 310° |
| 2026-05-03 22:19 | 51.38624 | -2.55104 | 2932 ft | 202 kts | 282° |
| 2026-05-03 22:19 | 51.38771 | -2.57279 | 2598 ft | 195 kts | 272° |
| 2026-05-03 22:20 | 51.38763 | -2.59461 | 2543 ft | 196 kts | 267° |
| 2026-05-03 22:20 | 51.38674 | -2.61629 | 2455 ft | 194 kts | 266° |
| 2026-05-03 22:20 | 51.38587 | -2.63781 | 2158 ft | 191 kts | 266° |
| 2026-05-03 22:20 | 51.38511 | -2.65876 | 1680 ft | 192 kts | 265° |
| 2026-05-03 22:21 | 51.38399 | -2.67962 | 1225 ft | 182 kts | 266° |
| 2026-05-03 22:21 | 51.38331 | -2.69946 | 791 ft | 176 kts | 267° |
| 2026-05-03 22:21 | 51.38268 | -2.71818 | 621 ft | 156 kts | 264° |
| 2026-05-03 22:21 | 51.38226 | -2.72922 | 627 ft | 58 kts | 267° |
| 2026-05-03 22:22 | 51.38231 | -2.73286 | 629 ft | 26 kts | 297° |
| 2026-05-03 22:22 | 51.38350 | -2.73313 | 615 ft | 19 kts | 32° |
| 2026-05-03 22:22 | 51.38393 | -2.73121 | 605 ft | 20 kts | 91° |
| 2026-05-03 22:22 | 51.38394 | -2.73029 | 603 ft | 20 kts | 87° |
| 2026-05-03 22:23 | 51.38402 | -2.72834 | 605 ft | 19 kts | 86° |
| 2026-05-03 22:23 | 51.38412 | -2.72626 | 613 ft | 18 kts | 86° |
| 2026-05-03 22:23 | 51.38421 | -2.72424 | 610 ft | 18 kts | 86° |
| 2026-05-03 22:23 | 51.38425 | -2.72227 | 618 ft | 18 kts | 88° |
| 2026-05-03 22:24 | 51.38431 | -2.72042 | 604 ft | 15 kts | 87° |
| 2026-05-03 22:24 | 51.38431 | -2.71874 | 605 ft | 15 kts | 91° |
| 2026-05-03 22:24 | 51.38436 | -2.71757 | 605 ft | 8 kts | 86° |
| 2026-05-03 22:24 | 51.38441 | -2.71656 | 619 ft | 9 kts | 86° |
| 2026-05-03 22:25 | 51.38484 | -2.71607 | 611 ft | 9 kts | 353° |
| 2026-05-03 22:25 | 51.38507 | -2.71608 | 621 ft | 3 kts | 359° |
| 2026-05-03 22:25 | 51.38529 | -2.71609 | 617 ft | 3 kts | 358° |
| 2026-05-03 22:25 | 51.38536 | -2.71609 | 615 ft | 0 kts | 358° |
| 2026-05-03 22:26 | 51.38537 | -2.71609 | 614 ft | 0 kts | 358° |